x

Stannard Rock, Mi (stdm4) Weather Station

2:00am - Wed 26th Apr 2017 All times are CDT. -5 hours from GMT.

  • Wind
    29mph, 32mph gusts
  • Air Temp 40°f
  • Sea Pressure 1006.2mb
  • Stannard Rock, Mi
  • Stannard Rock, Mi

More Historic Weather Station data

Upgrade to MSW Pro to gain access to the past 30 days of data for over 8000 Wavebouys and Weather Stations around the globe.

Join Pro

Comparision Forecast

View Surf forecast
   
Wed 04/26 2:00am 29 32 mph 1006.2mb 40f
1:00am 23
mph
1006.8mb 40f
12:00am 14
mph
1006.4mb 41f
Tue 04/25 11:00pm 13
mph
1005.9mb 46f
10:00pm 3 5 mph 1006.1mb 48f
9:00pm 34 36 mph 1003.7mb 55f
8:00pm 28
mph
1003.4mb 53f
6:00pm 31 32 mph 1002.5mb 56f
5:00pm 33 34 mph 1002.8mb 55f
4:00pm 31 32 mph 1003.2mb 51f
3:00pm 29 30 mph 1003.4mb 50f
2:00pm 21 22 mph 1004.2mb 47f
1:00pm 17 18 mph 1004.8mb 45f
12:00pm 17
mph
1005.3mb 44f
11:00am 24
mph
1005mb 43f
10:00am 11 15 mph 1005.8mb 41f
9:00am 17 20 mph 1006.4mb 41f
8:00am 18 20 mph 1006.3mb 42f
7:00am 22 23 mph 1006.5mb 41f
6:00am 23
mph
1006.8mb 41f
5:00am 17 21 mph 1007.6mb 41f
4:00am 16 17 mph 1008.6mb 40f
3:00am 17
mph
1009.2mb 42f
2:00am 29 30 mph 1009.2mb 42f
1:00am 21 22 mph 1010mb 40f
12:00am 25 26 mph 1009.8mb 42f
Mon 04/24 11:00pm 17 20 mph 1010.2mb 40f
10:00pm 18 21 mph 1010.5mb 43f
9:00pm 30 31 mph 1010mb 44f
8:00pm 29 30 mph 1009.9mb 44f
7:00pm 25 26 mph 1010.2mb 41f
6:00pm 28 29 mph 1010.7mb 39f
5:00pm 28 31 mph 1011.7mb 38f
4:00pm 28 30 mph 1012.6mb 38f
3:00pm 29 31 mph 1014mb 37f
2:00pm 25 28 mph 1015.4mb 37f
1:00pm 25 28 mph 1016.5mb 36f
12:00pm 28 32 mph 1017.5mb 35f
11:00am 28 32 mph 1018.1mb 35f
10:00am 28 30 mph 1018.7mb 35f
9:00am 28 29 mph 1019.3mb 35f
8:00am 25 26 mph 1019.7mb 34f
7:00am 22 23 mph 1020.4mb 34f
6:00am 17 18 mph 1020.4mb 33f
5:00am 16 17 mph 1020.5mb 33f
4:00am 13 14 mph 1020.7mb 33f
3:00am 10 11 mph 1021.3mb 33f
2:00am 10
mph
1022.3mb 32f
1:00am 8 9 mph 1022.4mb 31f
12:00am 7 8 mph 1022.5mb 31f
Sun 04/23 11:00pm 9
mph
1022.8mb 31f
10:00pm 7 8 mph 1023.4mb 31f
9:00pm 5
mph
1023.6mb 30f
8:00pm 2 3 mph 1023.4mb 30f
7:00pm 5
mph
1023.2mb 30f
6:00pm 6 7 mph 1023.6mb 30f
5:00pm 8 10 mph 1023.6mb 30f
4:00pm 9 10 mph 1023.6mb 30f
3:00pm 13 14 mph 1024mb 31f
2:00pm 13 14 mph 1024.3mb 31f
1:00pm 15 16 mph 1024.4mb 31f
12:00pm 16 17 mph 1024.5mb 31f
11:00am 17 18 mph 1024.3mb 31f
10:00am 18 21 mph 1024.3mb 30f
9:00am 22 25 mph 1023.8mb 31f
8:00am 25 28 mph 1023mb 30f
7:00am 26 31 mph 1021.8mb 31f
6:00am 31 34 mph 1020.4mb 32f
5:00am 30 32 mph 1019.5mb 32f
4:00am 28 30 mph 1018.9mb 34f
3:00am 26 29 mph 1018.1mb 35f
2:00am 25 26 mph 1017.8mb 36f
1:00am 20 22 mph 1017.4mb 39f
12:00am 13
mph
1017.8mb 43f
Sat 04/22 11:00pm 2
mph
1017.5mb 43f
10:00pm 5 6 mph 1017.4mb 43f
9:00pm 5 6 mph 1017.6mb 42f
8:00pm 21 23 mph 1015.5mb 53f
7:00pm 17
mph
1015.9mb 55f
6:00pm 15 17 mph 1016.3mb 55f
5:00pm 13 14 mph 1016.8mb 54f
4:00pm 11 13 mph 1017.4mb 56f
3:00pm 18 20 mph 1018.1mb 55f
2:00pm 17 18 mph 1018.8mb 54f
1:00pm 17
mph
1019.5mb 53f
12:00pm 21 23 mph 1020.3mb 52f
11:00am 17 18 mph 1021.1mb 50f
10:00am 15
mph
1021.7mb 46f
9:00am 14 15 mph 1021.9mb 42f